SPBSCAPPOOSE
METARs for airports near SPB, sorted by distance:
N 0 nm 58' KSPB 222253Z 00000KT 10SM CLR 09/03 A3043
SE 12 nm 28' KVUO 222253Z 30005KT 10SM CLR 09/03 A3044
S 14 nm 207' KHIO 222253Z 30003KT 10SM CLR 08/04 A3042
SE 15 nm 30' KPDX 222253Z 30006KT 10SM FEW100 FEW250 09/03 A3044
N 20 nm 20' KKLS 222256Z VRB06KT 10SM CLR 09/03 A3045
SE 23 nm 38' KTTD 222153Z 27008KT 10SM CLR 08/03 A3044
S 31 nm 199' KUAO 222253Z 36007KT 10SM CLR 10/03 A3042
S 36 nm 162' KMMV 222253Z 36006KT 10SM CLR 09/03 A3041
SW 45 nm 39' KTMK 222250Z 00000KT 10SM CLR 13/04 A3037
NW 48 nm 14' KAST 222255Z 05011KT 10SM CLR 10/03 A3039
S 52 nm 213' KSLE 222256Z 34006KT 10SM CLR 09/04 A3040
N 54 nm 177' KCLS 222255Z 04010KT 10SM CLR 07/05 A3048
E 71 nm 246' KDLS 222303Z 00000KT 10SM OVC010 04/01 A3056
N 71 nm 207' KOLM 222254Z 06007KT 10SM CLR 08/03 A3051
S 78 nm 249' KCVO 222256Z 04006KT 10SM SCT012 07/03 A3042
N 79 nm 301' KGRF 222258Z 04004KT 10SM SCT010 06/02 A3050
N 83 nm 537' KPLU 222255Z 00000KT 7SM OVC004 03/03 A3051
N 83 nm 322' KTCM 222238Z 04004KT 10SM BKN010 05/05 A3051
NW 84 nm 17' KHQM 222253Z 08013G18KT 10SM CLR 11/04 A3045
SW 87 nm 160' KONP 222255Z 02004KT 10SM CLR 12/03 A3035
N 88 nm 272' KSHN 222253Z 05007KT 10SM OVC015 07/03 A3049
N 90 nm 294' KTIW 222253Z 08004KT 10SM FEW009 SCT012 SCT031 07/03 A3052
S 99 nm 373' KEUG 222254Z 01010KT 10SM OVC011 06/03 A3040
TAFs for airports near SPB, sorted by distance:
S 14 nm 207' KHIO KHIO 221941Z 2220/2318 35003KT P6SM BKN010
  FM222100 02004KT P6SM FEW030
  FM230700 35002KT 1SM BR SCT002 BKN009
  FM231200 00000KT 1/2SM FG OVC002
SE 15 nm 30' KPDX TAF
  AMD KPDX 222053Z 2221/2318 35004KT P6SM FEW015
  FM230000 10008KT P6SM SKC
  FM230900 34003KT P6SM SKC
  FM231400 00000KT 6SM BR FEW003
SE 23 nm 38' KTTD KTTD 222057Z 2221/2318 27007KT P6SM SKC
  FM222300 08006KT P6SM SKC
  FM230300 10012G20KT P6SM SKC
  FM230900 10022G31KT P6SM SKC
  FM231600 10010KT 6SM BR FEW003
  AMD NOT SKED
S 31 nm 199' KUAO KUAO 221743Z 2218/2318 03004KT P6SM BKN012
  FM221900 03004KT P6SM SCT025
  FM222000 02004KT P6SM SKC
  FM230900 36002KT 5SM BR MIFG FEW007 BKN015
  FM231400 00000KT 1/2SM FG OVC002
NW 48 nm 14' KAST TAF KAST 221737Z 2218/2318 06008KT P6SM SKC
S 52 nm 213' KSLE TAF
  AMD KSLE 222101Z 2221/2318 36006KT P6SM BKN014
  FM222200 36007KT P6SM FEW015
  FM231100 35004KT 6SM BR MIFG BKN015
  FM231400 00000KT 1SM BR OVC002
E 71 nm 246' KDLS TAF
  AMD KDLS 222111Z 2221/2318 VRB03KT P6SM OVC007
  FM230600 10003KT 5SM BR OVC010
  FM231400 10003KT 1SM BR OVC005
N 71 nm 207' KOLM TAF KOLM 221720Z 2218/2318 03003KT 5SM BR BKN007
  FM222100 03004KT P6SM SCT010 SCT200
  FM230500 00000KT 1/2SM FG VV001
  FM231000 00000KT 1/4SM FG VV001
N 79 nm 301' KGRF TAF
  AMD KGRF 222256Z 2222/2403 VRB05KT 9999 SCT010 QNH3050INS
  BECMG 2302/2303 VRB05KT 9999 SCT020 QNH3049INS
  BECMG 2309/2310 VRB05KT 3200 BR OVC015 QNH3047INS
  TEMPO 2313/2316 VRB02KT 1600 BR OVC010
  BECMG 2318/2319 02005KT 9999 NSW SCT020 QNH3040INS
  BECMG 2322/2323 02005KT 9999 SCT020 QNH3040INS TX07/2221Z TN02/2316Z
N 83 nm 322' KTCM TAF KTCM 222100Z 2221/2403 VRB03KT 9999 OVC005 QNH3049INS
  BECMG 2222/2223 02006KT 9999 FEW010 QNH3044INS
  BECMG 2305/2306 01004KT 3200 BR SCT001 QNH3036INS
  TEMPO 2309/2315 0600 FG
  BECMG 2317/2318 01006KT 9999 NSW OVC003 QNH3030INS
  BECMG 2323/2324 VRB06KT 9999 SCT010 QNH3030INS TX07/2222Z TN00/2314Z
NW 84 nm 17' KHQM TAF KHQM 221720Z 2218/2318 10010KT P6SM SCT005 SCT200
  FM222000 06010KT P6SM SCT010 SCT200
  FM230400 05005KT 4SM BR SKC
  FM231200 10012KT 5SM BR SKC
SW 87 nm 160' KONP TAF KONP 221737Z 2218/2318 08014G23KT P6SM SKC
  FM230800 11010KT P6SM SKC
S 99 nm 373' KEUG TAF
  AMD KEUG 222107Z 2221/2318 01008KT P6SM OVC012
  FM222300 02008KT P6SM SCT015
  FM230800 35004KT 3SM BR SCT004 BKN010
  FM231200 00000KT 1/2SM FG OVC002

Shortcut to this page: http://wxbay.com.

Data may contain errors.